sensor_id;sensor_type;location;lat;lon;timestamp;temperature;humidity
42261;DHT22;27926;48.062;7.474;2023-05-29T00:01:30;16.30;99.40
42261;DHT22;27926;48.062;7.474;2023-05-29T00:03:55;16.20;99.90
42261;DHT22;27926;48.062;7.474;2023-05-29T00:06:20;16.00;99.90
42261;DHT22;27926;48.062;7.474;2023-05-29T00:08:45;15.90;99.90
42261;DHT22;27926;48.062;7.474;2023-05-29T00:11:10;15.80;99.90
42261;DHT22;27926;48.062;7.474;2023-05-29T00:13:34;15.60;99.90
42261;DHT22;27926;48.062;7.474;2023-05-29T00:15:59;15.50;99.90
42261;DHT22;27926;48.062;7.474;2023-05-29T00:18:25;15.40;99.90
42261;DHT22;27926;48.062;7.474;2023-05-29T00:20:50;15.30;99.90
42261;DHT22;27926;48.062;7.474;2023-05-29T00:23:14;15.10;99.90
42261;DHT22;27926;48.062;7.474;2023-05-29T00:25:39;15.00;99.90
42261;DHT22;27926;48.062;7.474;2023-05-29T00:28:07;15.00;99.90
42261;DHT22;27926;48.062;7.474;2023-05-29T00:30:31;15.00;99.90
42261;DHT22;27926;48.062;7.474;2023-05-29T00:32:56;15.00;99.90
42261;DHT22;27926;48.062;7.474;2023-05-29T00:35:20;15.00;99.90
42261;DHT22;27926;48.062;7.474;2023-05-29T00:37:45;15.10;99.90
42261;DHT22;27926;48.062;7.474;2023-05-29T00:40:10;15.10;99.90
42261;DHT22;27926;48.062;7.474;2023-05-29T00:42:35;15.10;99.90
42261;DHT22;27926;48.062;7.474;2023-05-29T00:45:00;15.00;99.90
42261;DHT22;27926;48.062;7.474;2023-05-29T00:47:25;14.90;99.90
42261;DHT22;27926;48.062;7.474;2023-05-29T00:49:50;14.80;99.90
42261;DHT22;27926;48.062;7.474;2023-05-29T00:52:16;15.00;99.90
42261;DHT22;27926;48.062;7.474;2023-05-29T00:54:43;15.10;99.90
42261;DHT22;27926;48.062;7.474;2023-05-29T00:57:09;15.30;99.90
42261;DHT22;27926;48.062;7.474;2023-05-29T00:59:34;15.30;99.90
42261;DHT22;27926;48.062;7.474;2023-05-29T01:02:01;15.40;99.90
42261;DHT22;27926;48.062;7.474;2023-05-29T01:04:26;15.50;99.90
42261;DHT22;27926;48.062;7.474;2023-05-29T01:06:52;15.50;99.90
42261;DHT22;27926;48.062;7.474;2023-05-29T01:09:16;15.50;99.90
42261;DHT22;27926;48.062;7.474;2023-05-29T01:11:54;15.50;99.90
42261;DHT22;27926;48.062;7.474;2023-05-29T01:22:26;15.40;99.90
42261;DHT22;27926;48.062;7.474;2023-05-29T01:27:58;15.30;99.90
42261;DHT22;27926;48.062;7.474;2023-05-29T01:30:25;15.40;99.90
42261;DHT22;27926;48.062;7.474;2023-05-29T01:32:52;15.30;99.90
42261;DHT22;27926;48.062;7.474;2023-05-29T01:35:17;15.30;99.90
42261;DHT22;27926;48.062;7.474;2023-05-29T01:37:42;15.20;99.90
42261;DHT22;27926;48.062;7.474;2023-05-29T01:40:07;15.20;99.90
42261;DHT22;27926;48.062;7.474;2023-05-29T01:42:32;15.20;99.90
42261;DHT22;27926;48.062;7.474;2023-05-29T01:44:57;15.20;99.90
42261;DHT22;27926;48.062;7.474;2023-05-29T01:47:22;15.20;99.90
42261;DHT22;27926;48.062;7.474;2023-05-29T01:49:48;15.20;99.90
42261;DHT22;27926;48.062;7.474;2023-05-29T01:52:13;15.10;99.90
42261;DHT22;27926;48.062;7.474;2023-05-29T01:54:38;15.10;99.90
42261;DHT22;27926;48.062;7.474;2023-05-29T01:57:03;15.10;99.90
42261;DHT22;27926;48.062;7.474;2023-05-29T01:59:30;15.10;99.90
42261;DHT22;27926;48.062;7.474;2023-05-29T02:01:55;15.10;99.90
42261;DHT22;27926;48.062;7.474;2023-05-29T02:04:19;15.10;99.90
42261;DHT22;27926;48.062;7.474;2023-05-29T02:06:44;15.10;99.90
42261;DHT22;27926;48.062;7.474;2023-05-29T02:09:08;15.10;99.90
42261;DHT22;27926;48.062;7.474;2023-05-29T02:11:33;15.10;99.90
42261;DHT22;27926;48.062;7.474;2023-05-29T02:13:58;15.00;99.90
42261;DHT22;27926;48.062;7.474;2023-05-29T02:16:22;15.00;99.90
42261;DHT22;27926;48.062;7.474;2023-05-29T02:18:47;14.90;99.90
42261;DHT22;27926;48.062;7.474;2023-05-29T02:21:14;14.90;99.90
42261;DHT22;27926;48.062;7.474;2023-05-29T02:23:39;14.80;99.90
42261;DHT22;27926;48.062;7.474;2023-05-29T02:26:04;14.80;99.90
42261;DHT22;27926;48.062;7.474;2023-05-29T02:28:29;14.80;99.90
42261;DHT22;27926;48.062;7.474;2023-05-29T02:30:53;14.80;99.90
42261;DHT22;27926;48.062;7.474;2023-05-29T02:33:18;14.70;99.90
42261;DHT22;27926;48.062;7.474;2023-05-29T02:35:42;14.70;99.90
42261;DHT22;27926;48.062;7.474;2023-05-29T02:38:07;14.70;99.90
42261;DHT22;27926;48.062;7.474;2023-05-29T02:40:34;14.70;99.90
42261;DHT22;27926;48.062;7.474;2023-05-29T02:43:02;15.70;99.90
42261;DHT22;27926;48.062;7.474;2023-05-29T02:45:26;14.60;99.90
42261;DHT22;27926;48.062;7.474;2023-05-29T02:47:51;14.50;99.90
42261;DHT22;27926;48.062;7.474;2023-05-29T02:50:15;14.50;99.90
42261;DHT22;27926;48.062;7.474;2023-05-29T02:52:40;14.50;99.90
42261;DHT22;27926;48.062;7.474;2023-05-29T02:55:05;14.40;99.90
42261;DHT22;27926;48.062;7.474;2023-05-29T02:57:30;14.40;99.90
42261;DHT22;27926;48.062;7.474;2023-05-29T02:59:54;14.30;99.90
42261;DHT22;27926;48.062;7.474;2023-05-29T03:02:19;14.30;99.90
42261;DHT22;27926;48.062;7.474;2023-05-29T03:04:47;14.20;99.90
42261;DHT22;27926;48.062;7.474;2023-05-29T03:07:14;14.20;99.90
42261;DHT22;27926;48.062;7.474;2023-05-29T03:09:39;14.20;99.90
42261;DHT22;27926;48.062;7.474;2023-05-29T03:12:04;14.20;99.90
42261;DHT22;27926;48.062;7.474;2023-05-29T03:14:28;14.10;99.90
42261;DHT22;27926;48.062;7.474;2023-05-29T03:16:54;14.10;99.90
42261;DHT22;27926;48.062;7.474;2023-05-29T03:19:18;14.10;99.90
42261;DHT22;27926;48.062;7.474;2023-05-29T03:21:43;14.00;99.90
42261;DHT22;27926;48.062;7.474;2023-05-29T03:24:08;14.00;99.90
42261;DHT22;27926;48.062;7.474;2023-05-29T03:26:32;14.00;99.90
42261;DHT22;27926;48.062;7.474;2023-05-29T03:28:57;13.90;99.90
42261;DHT22;27926;48.062;7.474;2023-05-29T03:31:21;13.90;99.90
42261;DHT22;27926;48.062;7.474;2023-05-29T03:33:47;13.90;99.90
42261;DHT22;27926;48.062;7.474;2023-05-29T03:36:11;13.90;99.90
42261;DHT22;27926;48.062;7.474;2023-05-29T03:38:36;13.80;99.90
42261;DHT22;27926;48.062;7.474;2023-05-29T03:41:01;13.70;99.90
42261;DHT22;27926;48.062;7.474;2023-05-29T03:43:25;13.70;99.90
42261;DHT22;27926;48.062;7.474;2023-05-29T03:45:51;13.70;99.90
42261;DHT22;27926;48.062;7.474;2023-05-29T03:48:16;13.70;99.90
42261;DHT22;27926;48.062;7.474;2023-05-29T03:50:40;13.70;99.90
42261;DHT22;27926;48.062;7.474;2023-05-29T03:53:05;13.70;99.90
42261;DHT22;27926;48.062;7.474;2023-05-29T03:55:29;13.70;99.90
42261;DHT22;27926;48.062;7.474;2023-05-29T03:57:55;13.70;99.90
42261;DHT22;27926;48.062;7.474;2023-05-29T04:00:20;13.70;99.90
42261;DHT22;27926;48.062;7.474;2023-05-29T04:02:45;13.70;99.90
42261;DHT22;27926;48.062;7.474;2023-05-29T04:05:09;13.70;99.90
42261;DHT22;27926;48.062;7.474;2023-05-29T04:07:35;13.70;99.90
42261;DHT22;27926;48.062;7.474;2023-05-29T04:10:01;13.70;99.90
42261;DHT22;27926;48.062;7.474;2023-05-29T04:12:26;13.80;99.90
42261;DHT22;27926;48.062;7.474;2023-05-29T04:14:50;13.80;99.90
42261;DHT22;27926;48.062;7.474;2023-05-29T04:17:15;13.90;99.90
42261;DHT22;27926;48.062;7.474;2023-05-29T04:19:39;14.00;99.90
42261;DHT22;27926;48.062;7.474;2023-05-29T04:22:04;14.00;99.90
42261;DHT22;27926;48.062;7.474;2023-05-29T04:24:29;14.10;99.90
42261;DHT22;27926;48.062;7.474;2023-05-29T04:26:55;14.10;99.90
42261;DHT22;27926;48.062;7.474;2023-05-29T04:29:20;14.20;99.90
42261;DHT22;27926;48.062;7.474;2023-05-29T04:31:45;14.30;99.90
42261;DHT22;27926;48.062;7.474;2023-05-29T04:34:09;14.40;99.90
42261;DHT22;27926;48.062;7.474;2023-05-29T04:36:35;14.60;99.90
42261;DHT22;27926;48.062;7.474;2023-05-29T04:39:01;14.90;99.90
42261;DHT22;27926;48.062;7.474;2023-05-29T04:41:27;15.40;99.90
42261;DHT22;27926;48.062;7.474;2023-05-29T04:43:55;15.90;99.90
42261;DHT22;27926;48.062;7.474;2023-05-29T04:46:20;16.40;99.90
42261;DHT22;27926;48.062;7.474;2023-05-29T04:48:45;16.70;99.90
42261;DHT22;27926;48.062;7.474;2023-05-29T04:51:10;17.00;99.90
42261;DHT22;27926;48.062;7.474;2023-05-29T04:53:35;17.40;99.20
42261;DHT22;27926;48.062;7.474;2023-05-29T04:56:00;17.80;98.70
42261;DHT22;27926;48.062;7.474;2023-05-29T04:58:26;18.20;97.70
42261;DHT22;27926;48.062;7.474;2023-05-29T05:00:50;18.50;97.40
42261;DHT22;27926;48.062;7.474;2023-05-29T05:03:15;18.70;97.30
42261;DHT22;27926;48.062;7.474;2023-05-29T05:05:41;19.00;96.70
42261;DHT22;27926;48.062;7.474;2023-05-29T05:08:05;19.20;96.50
42261;DHT22;27926;48.062;7.474;2023-05-29T05:10:30;19.50;95.90
42261;DHT22;27926;48.062;7.474;2023-05-29T05:12:54;19.60;95.40
42261;DHT22;27926;48.062;7.474;2023-05-29T05:15:19;19.70;95.20
42261;DHT22;27926;48.062;7.474;2023-05-29T05:17:44;19.80;94.60
42261;DHT22;27926;48.062;7.474;2023-05-29T05:20:09;20.00;94.80
42261;DHT22;27926;48.062;7.474;2023-05-29T05:22:35;20.00;94.70
42261;DHT22;27926;48.062;7.474;2023-05-29T05:25:00;19.80;94.60
42261;DHT22;27926;48.062;7.474;2023-05-29T05:27:24;19.80;94.80
42261;DHT22;27926;48.062;7.474;2023-05-29T05:29:50;19.80;94.60
42261;DHT22;27926;48.062;7.474;2023-05-29T05:32:15;19.80;94.30
42261;DHT22;27926;48.062;7.474;2023-05-29T05:34:40;19.70;94.40
42261;DHT22;27926;48.062;7.474;2023-05-29T05:37:04;19.80;94.50
42261;DHT22;27926;48.062;7.474;2023-05-29T05:39:29;20.00;94.10
42261;DHT22;27926;48.062;7.474;2023-05-29T05:41:54;20.10;93.60
42261;DHT22;27926;48.062;7.474;2023-05-29T05:44:18;20.00;93.80
42261;DHT22;27926;48.062;7.474;2023-05-29T05:46:43;20.30;93.70
42261;DHT22;27926;48.062;7.474;2023-05-29T05:49:07;20.40;93.50
42261;DHT22;27926;48.062;7.474;2023-05-29T05:51:32;20.30;93.20
42261;DHT22;27926;48.062;7.474;2023-05-29T05:53:57;20.20;93.40
42261;DHT22;27926;48.062;7.474;2023-05-29T05:56:21;20.30;93.00
42261;DHT22;27926;48.062;7.474;2023-05-29T05:58:46;20.50;93.30
42261;DHT22;27926;48.062;7.474;2023-05-29T06:01:11;21.10;92.70
42261;DHT22;27926;48.062;7.474;2023-05-29T06:03:35;20.90;92.00
42261;DHT22;27926;48.062;7.474;2023-05-29T06:06:01;20.70;92.20
42261;DHT22;27926;48.062;7.474;2023-05-29T06:08:26;20.60;92.40
42261;DHT22;27926;48.062;7.474;2023-05-29T06:10:51;20.50;92.50
42261;DHT22;27926;48.062;7.474;2023-05-29T06:13:15;20.50;92.60
42261;DHT22;27926;48.062;7.474;2023-05-29T06:15:41;20.20;92.60
42261;DHT22;27926;48.062;7.474;2023-05-29T06:18:05;20.40;92.60
42261;DHT22;27926;48.062;7.474;2023-05-29T06:20:30;20.40;92.60
42261;DHT22;27926;48.062;7.474;2023-05-29T06:22:55;20.40;93.00
42261;DHT22;27926;48.062;7.474;2023-05-29T06:25:19;20.30;92.80
42261;DHT22;27926;48.062;7.474;2023-05-29T06:27:44;20.30;92.70
42261;DHT22;27926;48.062;7.474;2023-05-29T06:30:10;20.30;92.80
42261;DHT22;27926;48.062;7.474;2023-05-29T06:32:34;20.40;92.60
42261;DHT22;27926;48.062;7.474;2023-05-29T06:34:59;20.50;92.90
42261;DHT22;27926;48.062;7.474;2023-05-29T06:37:24;20.50;92.50
42261;DHT22;27926;48.062;7.474;2023-05-29T06:39:48;20.30;92.40
42261;DHT22;27926;48.062;7.474;2023-05-29T06:42:13;20.50;92.60
42261;DHT22;27926;48.062;7.474;2023-05-29T06:44:38;20.60;92.80
42261;DHT22;27926;48.062;7.474;2023-05-29T06:47:05;20.80;92.40
42261;DHT22;27926;48.062;7.474;2023-05-29T06:49:30;20.80;92.10
42261;DHT22;27926;48.062;7.474;2023-05-29T06:51:54;20.60;92.10
42261;DHT22;27926;48.062;7.474;2023-05-29T06:54:19;20.60;92.80
42261;DHT22;27926;48.062;7.474;2023-05-29T06:56:43;20.40;92.30
42261;DHT22;27926;48.062;7.474;2023-05-29T06:59:08;20.40;92.50
42261;DHT22;27926;48.062;7.474;2023-05-29T07:01:33;20.30;92.70
42261;DHT22;27926;48.062;7.474;2023-05-29T07:03:57;20.60;93.20
42261;DHT22;27926;48.062;7.474;2023-05-29T07:06:22;20.60;92.50
42261;DHT22;27926;48.062;7.474;2023-05-29T07:08:46;20.50;92.20
42261;DHT22;27926;48.062;7.474;2023-05-29T07:11:11;20.40;92.30
42261;DHT22;27926;48.062;7.474;2023-05-29T07:13:36;20.70;92.80
42261;DHT22;27926;48.062;7.474;2023-05-29T07:16:00;20.70;92.20
42261;DHT22;27926;48.062;7.474;2023-05-29T07:18:25;20.80;92.60
42261;DHT22;27926;48.062;7.474;2023-05-29T07:20:49;20.90;92.50
42261;DHT22;27926;48.062;7.474;2023-05-29T07:23:14;21.20;92.10
42261;DHT22;27926;48.062;7.474;2023-05-29T07:25:39;21.20;92.30
42261;DHT22;27926;48.062;7.474;2023-05-29T07:28:03;21.00;92.10
42261;DHT22;27926;48.062;7.474;2023-05-29T07:30:28;21.00;92.40
42261;DHT22;27926;48.062;7.474;2023-05-29T07:32:52;21.00;92.10
42261;DHT22;27926;48.062;7.474;2023-05-29T07:35:17;20.80;92.20
42261;DHT22;27926;48.062;7.474;2023-05-29T07:37:42;20.80;92.30
42261;DHT22;27926;48.062;7.474;2023-05-29T07:40:07;20.80;92.60
42261;DHT22;27926;48.062;7.474;2023-05-29T07:42:32;20.70;92.90
42261;DHT22;27926;48.062;7.474;2023-05-29T07:44:57;20.90;93.00
42261;DHT22;27926;48.062;7.474;2023-05-29T07:47:21;20.90;92.30
42261;DHT22;27926;48.062;7.474;2023-05-29T07:49:46;21.00;93.00
42261;DHT22;27926;48.062;7.474;2023-05-29T07:52:10;21.30;92.40
42261;DHT22;27926;48.062;7.474;2023-05-29T07:54:36;21.30;92.40
42261;DHT22;27926;48.062;7.474;2023-05-29T07:57:01;21.40;92.50
42261;DHT22;27926;48.062;7.474;2023-05-29T07:59:33;21.60;92.20
42261;DHT22;27926;48.062;7.474;2023-05-29T08:01:59;21.40;92.20
42261;DHT22;27926;48.062;7.474;2023-05-29T08:04:26;21.40;92.30
42261;DHT22;27926;48.062;7.474;2023-05-29T08:06:51;21.60;92.10
42261;DHT22;27926;48.062;7.474;2023-05-29T08:09:15;21.50;92.70
42261;DHT22;27926;48.062;7.474;2023-05-29T08:11:40;21.40;92.10
42261;DHT22;27926;48.062;7.474;2023-05-29T08:14:05;21.30;92.40
42261;DHT22;27926;48.062;7.474;2023-05-29T08:16:29;21.30;92.80
42261;DHT22;27926;48.062;7.474;2023-05-29T08:18:54;21.40;93.00
42261;DHT22;27926;48.062;7.474;2023-05-29T08:21:19;21.50;91.70
42261;DHT22;27926;48.062;7.474;2023-05-29T08:23:44;21.50;92.20
42261;DHT22;27926;48.062;7.474;2023-05-29T08:26:09;21.50;92.20
42261;DHT22;27926;48.062;7.474;2023-05-29T08:28:33;21.50;92.00
42261;DHT22;27926;48.062;7.474;2023-05-29T08:30:58;21.60;92.00
42261;DHT22;27926;48.062;7.474;2023-05-29T08:33:22;21.40;91.90
42261;DHT22;27926;48.062;7.474;2023-05-29T08:35:47;21.50;91.90
42261;DHT22;27926;48.062;7.474;2023-05-29T08:38:12;21.70;91.80
42261;DHT22;27926;48.062;7.474;2023-05-29T08:40:36;21.90;91.60
42261;DHT22;27926;48.062;7.474;2023-05-29T08:43:21;22.10;91.50
42261;DHT22;27926;48.062;7.474;2023-05-29T08:45:48;22.20;90.90
42261;DHT22;27926;48.062;7.474;2023-05-29T08:48:16;22.20;90.70
42261;DHT22;27926;48.062;7.474;2023-05-29T08:50:45;22.30;91.70
42261;DHT22;27926;48.062;7.474;2023-05-29T08:53:14;22.40;91.30
42261;DHT22;27926;48.062;7.474;2023-05-29T08:55:39;22.60;91.30
42261;DHT22;27926;48.062;7.474;2023-05-29T08:58:05;22.50;91.10
42261;DHT22;27926;48.062;7.474;2023-05-29T09:00:31;22.70;91.80
42261;DHT22;27926;48.062;7.474;2023-05-29T09:02:56;22.90;90.30
42261;DHT22;27926;48.062;7.474;2023-05-29T09:05:21;22.90;90.70
42261;DHT22;27926;48.062;7.474;2023-05-29T09:07:46;22.90;90.90
42261;DHT22;27926;48.062;7.474;2023-05-29T09:10:11;22.80;90.70
42261;DHT22;27926;48.062;7.474;2023-05-29T09:12:36;22.90;90.20
42261;DHT22;27926;48.062;7.474;2023-05-29T09:15:01;22.90;90.10
42261;DHT22;27926;48.062;7.474;2023-05-29T09:17:31;22.80;90.50
42261;DHT22;27926;48.062;7.474;2023-05-29T09:19:59;22.90;90.10
42261;DHT22;27926;48.062;7.474;2023-05-29T09:22:24;22.90;90.60
42261;DHT22;27926;48.062;7.474;2023-05-29T09:24:49;23.10;91.20
42261;DHT22;27926;48.062;7.474;2023-05-29T09:27:15;23.30;90.00
42261;DHT22;27926;48.062;7.474;2023-05-29T09:32:09;23.30;90.00
42261;DHT22;27926;48.062;7.474;2023-05-29T09:34:35;23.30;90.00
42261;DHT22;27926;48.062;7.474;2023-05-29T09:37:04;23.20;90.10
42261;DHT22;27926;48.062;7.474;2023-05-29T09:39:32;23.30;90.70
42261;DHT22;27926;48.062;7.474;2023-05-29T09:41:58;23.30;90.60
42261;DHT22;27926;48.062;7.474;2023-05-29T09:44:22;23.50;90.30
42261;DHT22;27926;48.062;7.474;2023-05-29T09:46:49;23.60;90.00
42261;DHT22;27926;48.062;7.474;2023-05-29T09:49:13;23.50;88.40
42261;DHT22;27926;48.062;7.474;2023-05-29T09:51:38;23.40;90.00
42261;DHT22;27926;48.062;7.474;2023-05-29T09:54:16;23.50;89.30
42261;DHT22;27926;48.062;7.474;2023-05-29T09:56:42;23.70;89.90
42261;DHT22;27926;48.062;7.474;2023-05-29T09:59:13;23.70;89.00
42261;DHT22;27926;48.062;7.474;2023-05-29T10:01:42;23.80;88.40
42261;DHT22;27926;48.062;7.474;2023-05-29T10:04:09;23.80;88.80
42261;DHT22;27926;48.062;7.474;2023-05-29T10:06:36;23.70;88.90
42261;DHT22;27926;48.062;7.474;2023-05-29T10:09:02;23.70;89.30
42261;DHT22;27926;48.062;7.474;2023-05-29T10:11:28;23.90;90.00
42261;DHT22;27926;48.062;7.474;2023-05-29T10:13:52;24.20;88.70
42261;DHT22;27926;48.062;7.474;2023-05-29T10:16:21;24.20;88.00
42261;DHT22;27926;48.062;7.474;2023-05-29T10:18:53;24.30;88.00
42261;DHT22;27926;48.062;7.474;2023-05-29T10:21:19;24.40;89.20
42261;DHT22;27926;48.062;7.474;2023-05-29T10:23:46;24.40;88.50
42261;DHT22;27926;48.062;7.474;2023-05-29T10:26:27;24.40;87.30
42261;DHT22;27926;48.062;7.474;2023-05-29T10:34:37;24.50;85.80
42261;DHT22;27926;48.062;7.474;2023-05-29T10:37:15;24.60;85.40
42261;DHT22;27926;48.062;7.474;2023-05-29T10:39:42;24.60;86.60
42261;DHT22;27926;48.062;7.474;2023-05-29T10:42:45;24.50;87.90
42261;DHT22;27926;48.062;7.474;2023-05-29T10:45:10;24.50;87.10
42261;DHT22;27926;48.062;7.474;2023-05-29T10:47:36;24.50;88.60
42261;DHT22;27926;48.062;7.474;2023-05-29T10:50:02;24.70;85.10
42261;DHT22;27926;48.062;7.474;2023-05-29T10:52:33;24.60;87.10
42261;DHT22;27926;48.062;7.474;2023-05-29T10:54:58;24.60;87.30
42261;DHT22;27926;48.062;7.474;2023-05-29T10:57:24;24.70;86.10
42261;DHT22;27926;48.062;7.474;2023-05-29T11:00:00;24.90;87.10
42261;DHT22;27926;48.062;7.474;2023-05-29T11:02:29;24.90;86.00
42261;DHT22;27926;48.062;7.474;2023-05-29T11:05:22;25.00;86.20
42261;DHT22;27926;48.062;7.474;2023-05-29T11:07:52;25.00;86.20
42261;DHT22;27926;48.062;7.474;2023-05-29T11:13:33;25.10;85.70
42261;DHT22;27926;48.062;7.474;2023-05-29T11:18:45;25.10;84.20
42261;DHT22;27926;48.062;7.474;2023-05-29T11:21:33;25.20;86.30
42261;DHT22;27926;48.062;7.474;2023-05-29T11:24:03;25.30;85.50
42261;DHT22;27926;48.062;7.474;2023-05-29T11:26:30;25.40;84.60
42261;DHT22;27926;48.062;7.474;2023-05-29T11:29:03;25.50;85.30
42261;DHT22;27926;48.062;7.474;2023-05-29T11:31:28;25.40;83.70
42261;DHT22;27926;48.062;7.474;2023-05-29T11:33:59;25.40;85.40
42261;DHT22;27926;48.062;7.474;2023-05-29T11:36:25;25.50;84.70
42261;DHT22;27926;48.062;7.474;2023-05-29T11:38:51;25.50;84.70
42261;DHT22;27926;48.062;7.474;2023-05-29T11:41:17;25.40;84.20
42261;DHT22;27926;48.062;7.474;2023-05-29T11:43:42;25.50;84.60
42261;DHT22;27926;48.062;7.474;2023-05-29T11:46:18;25.60;85.30
42261;DHT22;27926;48.062;7.474;2023-05-29T11:48:47;25.70;84.50
42261;DHT22;27926;48.062;7.474;2023-05-29T11:51:12;25.60;83.80
42261;DHT22;27926;48.062;7.474;2023-05-29T11:53:40;25.70;84.40
42261;DHT22;27926;48.062;7.474;2023-05-29T11:56:09;25.70;85.30
42261;DHT22;27926;48.062;7.474;2023-05-29T11:58:36;25.80;85.00
42261;DHT22;27926;48.062;7.474;2023-05-29T12:01:01;25.80;82.20
42261;DHT22;27926;48.062;7.474;2023-05-29T12:03:26;25.90;82.80
42261;DHT22;27926;48.062;7.474;2023-05-29T12:05:51;26.10;83.30
42261;DHT22;27926;48.062;7.474;2023-05-29T12:08:23;26.20;81.70
42261;DHT22;27926;48.062;7.474;2023-05-29T12:10:49;26.10;82.40
42261;DHT22;27926;48.062;7.474;2023-05-29T12:13:14;26.10;81.70
42261;DHT22;27926;48.062;7.474;2023-05-29T12:15:41;26.10;82.30
42261;DHT22;27926;48.062;7.474;2023-05-29T12:18:06;26.30;82.30
42261;DHT22;27926;48.062;7.474;2023-05-29T12:20:30;26.40;82.70
42261;DHT22;27926;48.062;7.474;2023-05-29T12:23:02;26.20;82.50
42261;DHT22;27926;48.062;7.474;2023-05-29T12:25:26;26.30;81.80
42261;DHT22;27926;48.062;7.474;2023-05-29T12:27:55;26.30;82.20
42261;DHT22;27926;48.062;7.474;2023-05-29T12:30:21;26.40;82.30
42261;DHT22;27926;48.062;7.474;2023-05-29T12:32:51;26.50;83.00
42261;DHT22;27926;48.062;7.474;2023-05-29T12:35:21;26.60;80.90
42261;DHT22;27926;48.062;7.474;2023-05-29T12:37:47;26.60;81.20
42261;DHT22;27926;48.062;7.474;2023-05-29T12:40:23;26.80;80.00
42261;DHT22;27926;48.062;7.474;2023-05-29T12:42:48;26.80;81.30
42261;DHT22;27926;48.062;7.474;2023-05-29T12:45:14;26.70;81.80
42261;DHT22;27926;48.062;7.474;2023-05-29T12:48:06;26.70;80.00
42261;DHT22;27926;48.062;7.474;2023-05-29T12:50:38;26.70;81.70
42261;DHT22;27926;48.062;7.474;2023-05-29T12:53:11;26.80;79.90
42261;DHT22;27926;48.062;7.474;2023-05-29T12:55:37;26.90;81.50
42261;DHT22;27926;48.062;7.474;2023-05-29T12:58:10;27.00;79.80
42261;DHT22;27926;48.062;7.474;2023-05-29T13:00:39;26.70;79.10
42261;DHT22;27926;48.062;7.474;2023-05-29T13:03:05;26.60;79.40
42261;DHT22;27926;48.062;7.474;2023-05-29T13:05:30;26.60;80.00
42261;DHT22;27926;48.062;7.474;2023-05-29T13:07:55;26.60;78.50
42261;DHT22;27926;48.062;7.474;2023-05-29T13:10:21;26.50;78.90
42261;DHT22;27926;48.062;7.474;2023-05-29T13:12:46;26.60;79.20
42261;DHT22;27926;48.062;7.474;2023-05-29T13:15:12;26.70;80.60
42261;DHT22;27926;48.062;7.474;2023-05-29T13:17:38;26.90;79.30
42261;DHT22;27926;48.062;7.474;2023-05-29T13:20:06;26.80;78.10
42261;DHT22;27926;48.062;7.474;2023-05-29T13:22:32;26.80;78.50
42261;DHT22;27926;48.062;7.474;2023-05-29T13:24:57;26.70;79.60
42261;DHT22;27926;48.062;7.474;2023-05-29T13:27:23;26.90;80.00
42261;DHT22;27926;48.062;7.474;2023-05-29T13:29:48;26.90;79.50
42261;DHT22;27926;48.062;7.474;2023-05-29T13:32:12;27.00;78.10
42261;DHT22;27926;48.062;7.474;2023-05-29T13:34:37;26.80;78.40
42261;DHT22;27926;48.062;7.474;2023-05-29T13:37:01;26.80;78.60
42261;DHT22;27926;48.062;7.474;2023-05-29T13:39:27;26.80;78.40
42261;DHT22;27926;48.062;7.474;2023-05-29T13:41:52;26.80;78.90
42261;DHT22;27926;48.062;7.474;2023-05-29T13:44:17;26.80;79.20
42261;DHT22;27926;48.062;7.474;2023-05-29T13:46:41;26.80;79.20
42261;DHT22;27926;48.062;7.474;2023-05-29T13:49:06;27.00;79.90
42261;DHT22;27926;48.062;7.474;2023-05-29T13:51:31;27.10;79.50
42261;DHT22;27926;48.062;7.474;2023-05-29T13:53:56;27.10;77.50
42261;DHT22;27926;48.062;7.474;2023-05-29T13:56:20;27.00;77.30
42261;DHT22;27926;48.062;7.474;2023-05-29T13:58:45;26.90;78.10
42261;DHT22;27926;48.062;7.474;2023-05-29T14:01:10;26.90;78.90
42261;DHT22;27926;48.062;7.474;2023-05-29T14:03:34;26.90;79.10
42261;DHT22;27926;48.062;7.474;2023-05-29T14:06:00;27.00;79.90
42261;DHT22;27926;48.062;7.474;2023-05-29T14:08:24;27.00;77.60
42261;DHT22;27926;48.062;7.474;2023-05-29T14:10:49;26.90;77.20
42261;DHT22;27926;48.062;7.474;2023-05-29T14:13:15;26.90;78.50
42261;DHT22;27926;48.062;7.474;2023-05-29T14:15:39;26.90;78.30
42261;DHT22;27926;48.062;7.474;2023-05-29T14:18:07;26.80;79.10
42261;DHT22;27926;48.062;7.474;2023-05-29T14:20:32;26.80;79.10
42261;DHT22;27926;48.062;7.474;2023-05-29T14:22:57;26.80;78.50
42261;DHT22;27926;48.062;7.474;2023-05-29T14:25:21;26.80;79.00
42261;DHT22;27926;48.062;7.474;2023-05-29T14:27:47;26.80;77.40
42261;DHT22;27926;48.062;7.474;2023-05-29T14:30:11;26.90;76.20
42261;DHT22;27926;48.062;7.474;2023-05-29T14:32:36;26.80;77.20
42261;DHT22;27926;48.062;7.474;2023-05-29T14:35:01;26.90;77.90
42261;DHT22;27926;48.062;7.474;2023-05-29T14:37:25;26.80;77.10
42261;DHT22;27926;48.062;7.474;2023-05-29T14:39:50;26.80;77.00
42261;DHT22;27926;48.062;7.474;2023-05-29T14:42:15;26.80;77.70
42261;DHT22;27926;48.062;7.474;2023-05-29T14:44:40;26.80;78.20
42261;DHT22;27926;48.062;7.474;2023-05-29T14:47:05;26.80;78.10
42261;DHT22;27926;48.062;7.474;2023-05-29T14:49:29;26.70;77.30
42261;DHT22;27926;48.062;7.474;2023-05-29T14:51:56;26.80;78.30
42261;DHT22;27926;48.062;7.474;2023-05-29T14:54:20;26.90;76.00
42261;DHT22;27926;48.062;7.474;2023-05-29T14:56:45;26.80;76.10
42261;DHT22;27926;48.062;7.474;2023-05-29T14:59:10;26.70;76.60
42261;DHT22;27926;48.062;7.474;2023-05-29T15:01:34;26.80;77.20
42261;DHT22;27926;48.062;7.474;2023-05-29T15:03:59;26.70;76.50
42261;DHT22;27926;48.062;7.474;2023-05-29T15:06:24;26.70;77.00
42261;DHT22;27926;48.062;7.474;2023-05-29T15:08:48;26.70;75.90
42261;DHT22;27926;48.062;7.474;2023-05-29T15:11:15;26.70;76.40
42261;DHT22;27926;48.062;7.474;2023-05-29T15:13:41;26.80;76.30
42261;DHT22;27926;48.062;7.474;2023-05-29T15:16:06;26.80;75.80
42261;DHT22;27926;48.062;7.474;2023-05-29T15:18:31;26.70;76.90
42261;DHT22;27926;48.062;7.474;2023-05-29T15:20:55;26.70;77.10
42261;DHT22;27926;48.062;7.474;2023-05-29T15:23:21;26.70;77.60
42261;DHT22;27926;48.062;7.474;2023-05-29T15:25:47;26.70;77.20
42261;DHT22;27926;48.062;7.474;2023-05-29T15:28:11;26.70;77.30
42261;DHT22;27926;48.062;7.474;2023-05-29T15:30:37;26.60;76.20
42261;DHT22;27926;48.062;7.474;2023-05-29T15:33:01;26.70;77.00
42261;DHT22;27926;48.062;7.474;2023-05-29T15:35:32;26.60;76.50
42261;DHT22;27926;48.062;7.474;2023-05-29T15:37:56;26.50;76.30
42261;DHT22;27926;48.062;7.474;2023-05-29T15:40:21;26.50;76.30
42261;DHT22;27926;48.062;7.474;2023-05-29T15:42:45;26.50;76.20
42261;DHT22;27926;48.062;7.474;2023-05-29T15:45:10;26.40;76.70
42261;DHT22;27926;48.062;7.474;2023-05-29T15:47:35;26.40;76.70